WZZ2447 LZIB-LZKZ
Flight info
| Callsign | WZZ2447 |
|---|---|
| Flight time | 0h 28m |
| Altitude | 23000 |
| Route | NIT N190 TAKOS |
| Aircraft | A321/M-SDE3FGHIRWY/LB1 |
Departure
| Time | 2026-04-23 17:35 |
|---|---|
| Airport | M. R. Štefánik Airport (LZIB) |
Arrival
| Time | 2026-04-23 18:04 |
|---|---|
| Airport | Košice International Airport (LZKZ) |
| Time | Latitude | Longitude | Altitude | Speed | Heading |
|---|---|---|---|---|---|
| 2026-04-23 17:06 | 48.16907 | 17.20063 | 437 ft | 0 kts | 313° |
| 2026-04-23 17:22 | 48.16898 | 17.20078 | 431 ft | 3 kts | 320° |
| 2026-04-23 17:23 | 48.16863 | 17.20101 | 425 ft | 3 kts | 4° |
| 2026-04-23 17:23 | 48.16845 | 17.20095 | 426 ft | 3 kts | 31° |
| 2026-04-23 17:23 | 48.16834 | 17.20084 | 427 ft | 0 kts | 44° |
| 2026-04-23 17:27 | 48.16845 | 17.20099 | 425 ft | 5 kts | 44° |
| 2026-04-23 17:27 | 48.16886 | 17.20158 | 428 ft | 11 kts | 44° |
| 2026-04-23 17:27 | 48.16940 | 17.20238 | 428 ft | 13 kts | 44° |
| 2026-04-23 17:27 | 48.17019 | 17.20347 | 424 ft | 18 kts | 43° |
| 2026-04-23 17:28 | 48.17105 | 17.20469 | 431 ft | 14 kts | 44° |
| 2026-04-23 17:28 | 48.17155 | 17.20541 | 424 ft | 10 kts | 44° |
| 2026-04-23 17:28 | 48.17173 | 17.20625 | 425 ft | 9 kts | 104° |
| 2026-04-23 17:28 | 48.17126 | 17.20703 | 430 ft | 12 kts | 135° |
| 2026-04-23 17:29 | 48.17062 | 17.20811 | 424 ft | 16 kts | 132° |
| 2026-04-23 17:29 | 48.16999 | 17.20911 | 422 ft | 7 kts | 133° |
| 2026-04-23 17:29 | 48.16893 | 17.21077 | 424 ft | 16 kts | 134° |
| 2026-04-23 17:30 | 48.16836 | 17.21162 | 425 ft | 18 kts | 135° |
| 2026-04-23 17:30 | 48.16589 | 17.21536 | 430 ft | 26 kts | 133° |
| 2026-04-23 17:30 | 48.16456 | 17.21744 | 419 ft | 29 kts | 134° |
| 2026-04-23 17:31 | 48.16315 | 17.21960 | 426 ft | 27 kts | 134° |
| 2026-04-23 17:31 | 48.16180 | 17.22168 | 425 ft | 25 kts | 134° |
| 2026-04-23 17:31 | 48.16069 | 17.22343 | 416 ft | 25 kts | 133° |
| 2026-04-23 17:31 | 48.15947 | 17.22536 | 422 ft | 26 kts | 134° |
| 2026-04-23 17:32 | 48.15831 | 17.22713 | 429 ft | 21 kts | 134° |
| 2026-04-23 17:32 | 48.15755 | 17.22835 | 418 ft | 12 kts | 133° |
| 2026-04-23 17:32 | 48.15701 | 17.22941 | 422 ft | 11 kts | 114° |
| 2026-04-23 17:32 | 48.15681 | 17.23037 | 427 ft | 6 kts | 104° |
| 2026-04-23 17:33 | 48.15681 | 17.23040 | 427 ft | 0 kts | 103° |
| 2026-04-23 17:33 | 48.15676 | 17.23065 | 419 ft | 6 kts | 103° |
| 2026-04-23 17:33 | 48.15680 | 17.23144 | 418 ft | 10 kts | 65° |
| 2026-04-23 17:34 | 48.15726 | 17.23217 | 427 ft | 5 kts | 42° |
| 2026-04-23 17:34 | 48.15760 | 17.23208 | 426 ft | 7 kts | 314° |
| 2026-04-23 17:34 | 48.16086 | 17.22693 | 423 ft | 110 kts | 314° |
| 2026-04-23 17:35 | 48.16751 | 17.21662 | 860 ft | 143 kts | 315° |
| 2026-04-23 17:35 | 48.18185 | 17.20447 | 2381 ft | 154 kts | 350° |
| 2026-04-23 17:35 | 48.19608 | 17.21048 | 3470 ft | 178 kts | 32° |
| 2026-04-23 17:36 | 48.20246 | 17.22810 | 4083 ft | 214 kts | 69° |
| 2026-04-23 17:36 | 48.20560 | 17.25121 | 4626 ft | 240 kts | 74° |
| 2026-04-23 17:36 | 48.20861 | 17.27736 | 5532 ft | 262 kts | 75° |
| 2026-04-23 17:36 | 48.21136 | 17.30313 | 7537 ft | 241 kts | 75° |
| 2026-04-23 17:37 | 48.21406 | 17.32758 | 9327 ft | 237 kts | 75° |
| 2026-04-23 17:37 | 48.21715 | 17.35321 | 10367 ft | 263 kts | 75° |
| 2026-04-23 17:37 | 48.22519 | 17.41227 | 11922 ft | 315 kts | 74° |
| 2026-04-23 17:38 | 48.23004 | 17.44572 | 12555 ft | 341 kts | 74° |
| 2026-04-23 17:38 | 48.23528 | 17.48176 | 13124 ft | 367 kts | 75° |
| 2026-04-23 17:38 | 48.24084 | 17.52043 | 13624 ft | 391 kts | 75° |
| 2026-04-23 17:38 | 48.24658 | 17.56104 | 14413 ft | 404 kts | 75° |
| 2026-04-23 17:39 | 48.25043 | 17.58857 | 15054 ft | 409 kts | 75° |
| 2026-04-23 17:39 | 48.25623 | 17.63039 | 16294 ft | 405 kts | 75° |
| 2026-04-23 17:39 | 48.26184 | 17.67121 | 17973 ft | 396 kts | 75° |
| 2026-04-23 17:39 | 48.26742 | 17.71168 | 19157 ft | 397 kts | 75° |
| 2026-04-23 17:40 | 48.27304 | 17.75237 | 20188 ft | 399 kts | 75° |
| 2026-04-23 17:40 | 48.27869 | 17.79331 | 21172 ft | 402 kts | 75° |
| 2026-04-23 17:40 | 48.28436 | 17.83448 | 22066 ft | 404 kts | 75° |
| 2026-04-23 17:40 | 48.29008 | 17.87590 | 22887 ft | 406 kts | 75° |
| 2026-04-23 17:41 | 48.29584 | 17.91760 | 23687 ft | 409 kts | 75° |
| 2026-04-23 17:41 | 48.30734 | 18.00154 | 24928 ft | 417 kts | 75° |
| 2026-04-23 17:41 | 48.31327 | 18.04505 | 25052 ft | 433 kts | 75° |
| 2026-04-23 17:42 | 48.32553 | 18.13553 | 25851 ft | 445 kts | 75° |
| 2026-04-23 17:42 | 48.33161 | 18.18100 | 26546 ft | 443 kts | 75° |
| 2026-04-23 17:42 | 48.33766 | 18.22635 | 27146 ft | 443 kts | 75° |
| 2026-04-23 17:43 | 48.34374 | 18.27189 | 27541 ft | 447 kts | 75° |
| 2026-04-23 17:43 | 48.34985 | 18.31774 | 27950 ft | 449 kts | 75° |
| 2026-04-23 17:43 | 48.35603 | 18.36394 | 28032 ft | 450 kts | 75° |
| 2026-04-23 17:44 | 48.36817 | 18.45553 | 28039 ft | 445 kts | 75° |
| 2026-04-23 17:44 | 48.38615 | 18.59232 | 28043 ft | 444 kts | 75° |
| 2026-04-23 17:45 | 48.40390 | 18.72879 | 28029 ft | 446 kts | 75° |
| 2026-04-23 17:46 | 48.42159 | 18.86612 | 28031 ft | 446 kts | 75° |
| 2026-04-23 17:46 | 48.43325 | 18.95783 | 28020 ft | 446 kts | 75° |
| 2026-04-23 17:47 | 48.44492 | 19.04972 | 28023 ft | 447 kts | 75° |
| 2026-04-23 17:48 | 48.46204 | 19.18773 | 28006 ft | 447 kts | 76° |
| 2026-04-23 17:48 | 48.47268 | 19.28013 | 27996 ft | 448 kts | 76° |
| 2026-04-23 17:48 | 48.47790 | 19.32634 | 27995 ft | 448 kts | 76° |
| 2026-04-23 17:49 | 48.48313 | 19.37258 | 27995 ft | 447 kts | 76° |
| 2026-04-23 17:49 | 48.48839 | 19.41879 | 27992 ft | 447 kts | 76° |
| 2026-04-23 17:49 | 48.49368 | 19.46500 | 27980 ft | 447 kts | 76° |
| 2026-04-23 17:49 | 48.49895 | 19.51124 | 27980 ft | 447 kts | 76° |
| 2026-04-23 17:50 | 48.50422 | 19.55744 | 27973 ft | 447 kts | 76° |
| 2026-04-23 17:50 | 48.51469 | 19.64997 | 27566 ft | 449 kts | 76° |
| 2026-04-23 17:50 | 48.51992 | 19.69645 | 27266 ft | 450 kts | 76° |
| 2026-04-23 17:51 | 48.52516 | 19.74313 | 26883 ft | 452 kts | 76° |
| 2026-04-23 17:51 | 48.53042 | 19.79004 | 25713 ft | 455 kts | 76° |
| 2026-04-23 17:51 | 48.54102 | 19.88520 | 23344 ft | 461 kts | 76° |
| 2026-04-23 17:52 | 48.54628 | 19.93285 | 22035 ft | 460 kts | 76° |
| 2026-04-23 17:52 | 48.55655 | 20.02676 | 20370 ft | 444 kts | 77° |
| 2026-04-23 17:52 | 48.56150 | 20.07257 | 20077 ft | 443 kts | 77° |
| 2026-04-23 17:53 | 48.57140 | 20.16367 | 19975 ft | 443 kts | 77° |
| 2026-04-23 17:53 | 48.57638 | 20.20953 | 19615 ft | 440 kts | 77° |
| 2026-04-23 17:53 | 48.58033 | 20.25494 | 18255 ft | 435 kts | 83° |
| 2026-04-23 17:54 | 48.57933 | 20.30056 | 16573 ft | 435 kts | 94° |
| 2026-04-23 17:54 | 48.57478 | 20.34528 | 15098 ft | 428 kts | 96° |
| 2026-04-23 17:54 | 48.56569 | 20.43281 | 12702 ft | 418 kts | 95° |
| 2026-04-23 17:55 | 48.55700 | 20.51810 | 11132 ft | 405 kts | 95° |
| 2026-04-23 17:55 | 48.55276 | 20.55990 | 10708 ft | 403 kts | 95° |
| 2026-04-23 17:55 | 48.54854 | 20.60182 | 10460 ft | 404 kts | 95° |
| 2026-04-23 17:56 | 48.54426 | 20.64368 | 10247 ft | 403 kts | 96° |
| 2026-04-23 17:56 | 48.53497 | 20.72628 | 9798 ft | 401 kts | 97° |
| 2026-04-23 17:56 | 48.53006 | 20.76762 | 9584 ft | 400 kts | 97° |
| 2026-04-23 17:57 | 48.52513 | 20.80884 | 9369 ft | 399 kts | 97° |
| 2026-04-23 17:57 | 48.52020 | 20.84997 | 9157 ft | 398 kts | 97° |
| 2026-04-23 17:57 | 48.51044 | 20.93191 | 8738 ft | 395 kts | 96° |
| 2026-04-23 17:58 | 48.50566 | 20.97227 | 8255 ft | 378 kts | 96° |
| 2026-04-23 17:58 | 48.50110 | 21.01038 | 6626 ft | 362 kts | 96° |
| 2026-04-23 17:58 | 48.49672 | 21.04713 | 5001 ft | 350 kts | 96° |
| 2026-04-23 17:58 | 48.49244 | 21.08281 | 3663 ft | 339 kts | 96° |
| 2026-04-23 17:59 | 48.48873 | 21.11574 | 3071 ft | 304 kts | 90° |
| 2026-04-23 17:59 | 48.49111 | 21.14606 | 2803 ft | 277 kts | 65° |
| 2026-04-23 17:59 | 48.50009 | 21.16965 | 2674 ft | 253 kts | 44° |
| 2026-04-23 17:59 | 48.51261 | 21.18540 | 2546 ft | 217 kts | 26° |
| 2026-04-23 18:00 | 48.52562 | 21.19326 | 2518 ft | 191 kts | 11° |
| 2026-04-23 18:00 | 48.53764 | 21.19743 | 2534 ft | 173 kts | 11° |
| 2026-04-23 18:00 | 48.54935 | 21.20151 | 2518 ft | 170 kts | 10° |
| 2026-04-23 18:00 | 48.56062 | 21.20543 | 2482 ft | 163 kts | 10° |
| 2026-04-23 18:01 | 48.57114 | 21.20911 | 2316 ft | 150 kts | 9° |
| 2026-04-23 18:01 | 48.58117 | 21.21260 | 2137 ft | 146 kts | 9° |
| 2026-04-23 18:01 | 48.59073 | 21.21598 | 1940 ft | 137 kts | 10° |
| 2026-04-23 18:01 | 48.59992 | 21.21932 | 1781 ft | 132 kts | 11° |
| 2026-04-23 18:02 | 48.60883 | 21.22234 | 1611 ft | 132 kts | 8° |
| 2026-04-23 18:02 | 48.61790 | 21.22561 | 1428 ft | 134 kts | 10° |
| 2026-04-23 18:02 | 48.62692 | 21.22859 | 1249 ft | 132 kts | 11° |
| 2026-04-23 18:02 | 48.63586 | 21.23174 | 1083 ft | 133 kts | 12° |
| 2026-04-23 18:03 | 48.64490 | 21.23489 | 906 ft | 131 kts | 12° |
| 2026-04-23 18:03 | 48.65382 | 21.23799 | 768 ft | 125 kts | 11° |
| 2026-04-23 18:03 | 48.66127 | 21.24054 | 756 ft | 96 kts | 13° |
| 2026-04-23 18:03 | 48.66705 | 21.24257 | 758 ft | 75 kts | 13° |
| 2026-04-23 18:04 | 48.67079 | 21.24390 | 759 ft | 21 kts | 13° |
| 2026-04-23 18:04 | 48.67188 | 21.24428 | 759 ft | 11 kts | 9° |
| 2026-04-23 18:04 | 48.67232 | 21.24382 | 756 ft | 9 kts | 293° |
| 2026-04-23 18:04 | 48.67252 | 21.24263 | 755 ft | 14 kts | 283° |
| 2026-04-23 18:05 | 48.67265 | 21.24182 | 753 ft | 4 kts | 284° |
| 2026-04-23 18:05 | 48.67265 | 21.24180 | 753 ft | 0 kts | 284° |
| 2026-04-23 18:06 | 48.67267 | 21.24168 | 755 ft | 3 kts | 283° |
| 2026-04-23 18:06 | 48.67277 | 21.24105 | 757 ft | 8 kts | 283° |
| 2026-04-23 18:07 | 48.67290 | 21.24018 | 758 ft | 9 kts | 282° |
| 2026-04-23 18:07 | 48.67300 | 21.23941 | 757 ft | 6 kts | 278° |
| 2026-04-23 18:07 | 48.67278 | 21.23885 | 754 ft | 8 kts | 211° |
| 2026-04-23 18:07 | 48.67245 | 21.23871 | 754 ft | 1 kts | 193° |
| 2026-04-23 18:08 | 48.67235 | 21.23862 | 756 ft | 3 kts | 216° |
| 2026-04-23 18:08 | 48.67230 | 21.23838 | 753 ft | 1 kts | 269° |
| 2026-04-23 18:08 | 48.67235 | 21.23830 | 752 ft | 2 kts | 301° |
| 2026-04-23 18:08 | 48.67254 | 21.23813 | 755 ft | 4 kts | 348° |
| 2026-04-23 18:09 | 48.67274 | 21.23819 | 756 ft | 1 kts | 27° |
| 2026-04-23 18:09 | 48.67279 | 21.23825 | 758 ft | 0 kts | 40° |